Caledonia, Canada
Current Conditions -  °F | °C
As of 5:00 PM on Monday 24 Nov 2014 (Local Time) from CYHM Reporting Station
Broken Clouds Broken Clouds  
Wind Chill: 35°   Ceiling: 2600
Heat Index: 46°   Visibility: 15mi
Dew Point: 37°   Wind: 48mph
Humidity: 71%   Direction: 230°SW
Pressure: 29.37"   Gusts: 58mph
Location:  43.07°N, 79.95°W
Report Text: CYHM 242200Z 23042G50KT 15SM BKN026 BKN035 08/03 A2937 RMK SC6SC1 PRESRR SLP946
Loading
Personal Weather Stations






























Interactive Weather Map New forecast layout! Learn more

10-Day Weather Forecast

Advertisements
Track Severe Weather on mobile